Brighton Beach, South Carolina
Current Conditions -  °F | °C
As of 12:55 AM on Tuesday 27 Jan 2015 (Local Time) from KHXD Reporting Station
Clear Clear  
Wind Chill:   Ceiling: Unl
Heat Index:   Visibility: 10mi
Dew Point:   Wind: 13mph
Humidity: 70%   Direction: 240°WSW
Pressure: 29.86"   Gusts: 21mph
Location:  32.2133°N, 80.9033°W
Report Text: KHXD 270555Z AUTO 24011G18KT 020V020 10SM CLR 05/00 A2986 RMK AO2 P0000
Loading
Personal Weather Stations






























Interactive Weather Map New forecast layout! Learn more

10-Day Weather Forecast

Advertisements
Track Severe Weather on mobile